地図

経路データ

SID SEASON NUMBER BASIN SUBBASIN NAME ISO_TIME NATURE LAT LON WMO_WIND WMO_PRES WMO_AGENCY TRACK_TYPE DIST2LAND LANDFALL IFLAG USA_AGENCY USA_ATCF_ID USA_LAT USA_LON USA_RECORD USA_STATUS USA_WIND USA_PRES USA_SSHS USA_R34_NE USA_R34_SE USA_R34_SW USA_R34_NW USA_R50_NE USA_R50_SE USA_R50_SW USA_R50_NW USA_R64_NE USA_R64_SE USA_R64_SW USA_R64_NW USA_POCI USA_ROCI USA_RMW USA_EYE TOKYO_LAT TOKYO_LON TOKYO_GRADE TOKYO_WIND TOKYO_PRES TOKYO_R50_DIR TOKYO_R50_LONG TOKYO_R50_SHORT TOKYO_R30_DIR TOKYO_R30_LONG TOKYO_R30_SHORT TOKYO_LAND CMA_LAT CMA_LON CMA_CAT CMA_WIND CMA_PRES HKO_LAT HKO_LON HKO_CAT HKO_WIND HKO_PRES NEWDELHI_LAT NEWDELHI_LON NEWDELHI_GRADE NEWDELHI_WIND NEWDELHI_PRES NEWDELHI_CI NEWDELHI_DP NEWDELHI_POCI REUNION_LAT REUNION_LON REUNION_TYPE REUNION_WIND REUNION_PRES REUNION_TNUM REUNION_CI REUNION_RMW REUNION_R34_NE REUNION_R34_SE REUNION_R34_SW REUNION_R34_NW REUNION_R50_NE REUNION_R50_SE REUNION_R50_SW REUNION_R50_NW REUNION_R64_NE REUNION_R64_SE REUNION_R64_SW REUNION_R64_NW BOM_LAT BOM_LON BOM_TYPE BOM_WIND BOM_PRES BOM_TNUM BOM_CI BOM_RMW BOM_R34_NE BOM_R34_SE BOM_R34_SW BOM_R34_NW BOM_R50_NE BOM_R50_SE BOM_R50_SW BOM_R50_NW BOM_R64_NE BOM_R64_SE BOM_R64_SW BOM_R64_NW BOM_ROCI BOM_POCI BOM_EYE BOM_POS_METHOD BOM_PRES_METHOD NADI_LAT NADI_LON NADI_CAT NADI_WIND NADI_PRES WELLINGTON_LAT WELLINGTON_LON WELLINGTON_WIND WELLINGTON_PRES DS824_LAT DS824_LON DS824_STAGE DS824_WIND DS824_PRES TD9636_LAT TD9636_LON TD9636_STAGE TD9636_WIND TD9636_PRES TD9635_LAT TD9635_LON TD9635_WIND TD9635_PRES TD9635_ROCI NEUMANN_LAT NEUMANN_LON NEUMANN_CLASS NEUMANN_WIND NEUMANN_PRES MLC_LAT MLC_LON MLC_CLASS MLC_WIND MLC_PRES USA_GUST BOM_GUST BOM_GUST_PER REUNION_GUST REUNION_GUST_PER USA_SEAHGT USA_SEARAD_NE USA_SEARAD_SE USA_SEARAD_SW USA_SEARAD_NW STORM_SPEED STORM_DIR
1998056S14139 1998 15 SP EA MAY 1998-02-24 18:00:00 NR -14.4000 138.900 main 205 205 O_____________ jtwc_sh SH251998 -14.4000 138.900 20 -1 2 149
1998056S14139 1998 15 SP EA MAY 1998-02-24 21:00:00 NR -14.4900 138.960 main 216 216 P_____________ SH251998 -14.4900 138.960 20 -1 1 151
1998056S14139 1998 15 SP EA MAY 1998-02-25 00:00:00 NR -14.5250 138.975 25 1002 bom main 216 207 O_____O_______ jtwc_sh SH251998 -14.6000 139.000 20 -1 -14.3000 138.900 20 25 1002 2.00000 1010 45 45 1 191
1998056S14139 1998 15 SP EA MAY 1998-02-25 03:00:00 NR -14.5850 138.938 main 207 207 P_____P_______ SH251998 -14.7425 139.008 20 -1 -14.2700 138.800 20 27 1000 2 224
1998056S14139 1998 15 SP EA MAY 1998-02-25 06:00:00 TS -14.6500 138.850 30 999 bom main 196 187 O_____O_____O_ jtwc_sh SH251998 -14.9000 139.000 20 -1 -14.4000 138.700 20 30 999 2.50000 161 7 6 -14.4000 138.700 TC 30 999 45 45 4 208
1998056S14139 1998 15 SP EA MAY 1998-02-25 09:00:00 TS -14.9020 138.765 main 187 154 P_____P_____P_ SH251998 -15.0575 139.007 25 -1 -14.7775 138.600 20 32 999 174 -14.8400 138.610 TC 30 999 6 196
1998056S14139 1998 15 SP EA MAY 1998-02-25 12:00:00 TS -15.2000 138.682 35 999 bom main 154 131 O_____O_____O_ jtwc_sh SH251998 -15.2000 139.000 30 -1 -15.2000 138.500 30 35 999 3.00000 188 7 6 -15.2000 138.500 TC 30 999 49 49 5 202
1998056S14139 1998 15 SP EA MAY 1998-02-25 15:00:00 TS -15.3842 138.566 main 131 116 P_____P_____P_ SH251998 -15.2925 138.957 30 -1 -15.4300 138.370 30 37 997 174 -15.4300 138.370 TC 35 997 4 208
1998056S14139 1998 15 SP EA MAY 1998-02-25 18:00:00 TS -15.5333 138.500 40 995 bom main 116 102 O_____O_____O_ jtwc_sh SH251998 -15.4000 138.900 30 -1 -15.6000 138.300 30 40 995 3.00000 161 7 6 -15.6000 138.300 TC 40 995 55 55 3 186
1998056S14139 1998 15 SP EA MAY 1998-02-25 21:00:00 TS -15.7183 138.525 main 102 96 P_____P_____P_ SH251998 -15.5700 138.850 32 -1 -15.7925 138.362 30 40 995 174 -15.7925 138.362 TC 40 995 4 167
1998056S14139 1998 15 SP EA MAY 1998-02-26 00:00:00 TS -15.9333 138.600 40 995 bom main 100 78 O_____O_____O_ jtwc_sh SH251998 -15.8000 138.800 35 0 -16.0000 138.500 30 40 995 3.00000 188 7 6 -16.0000 138.500 TC 40 995 55 55 5 162
1998056S14139 1998 15 SP EA MAY 1998-02-26 03:00:00 TS -16.1632 138.678 main 67 46 P_____P_____P_ SH251998 -16.0775 138.750 35 0 -16.1920 138.613 30 40 992 161 -16.2200 138.672 TC 42 992 6 163
1998056S14139 1998 15 SP EA MAY 1998-02-26 06:00:00 TS -16.4636 138.764 40 990 bom main 39 0 O_____O_____O_ jtwc_sh SH251998 -16.4000 138.700 35 0 -16.5000 138.800 30 40 990 3.00000 134 8 7 6 -16.5000 138.800 TC 45 990 55 55 7 166
1998056S14139 1998 15 SP EA MAY 1998-02-26 09:00:00 TS -16.8805 138.859 40 990 bom main 0 0 P_____O_____P_ SH251998 -16.7650 138.650 35 0 -17.0000 139.100 30 40 990 3.00000 134 8 7 6 -16.8725 138.793 TC 42 992 55 55 7 188
1998056S14139 1998 15 SP EA MAY 1998-02-26 12:00:00 TS -17.2000 138.650 35 995 bom main 0 0 O_____O_____O_ jtwc_sh SH251998 -17.1000 138.600 35 0 -17.3000 138.700 30 35 995 134 8 7 6 -17.3000 138.700 TC 40 995 49 49 6 213
1998056S14139 1998 15 SP EA MAY 1998-02-26 15:00:00 NR -17.3736 138.525 main 0 0 P_____P_______ SH251998 -17.3225 138.550 32 -1 -17.4758 138.476 30 32 996 TC 4 204
1998056S14139 1998 15 SP EA MAY 1998-02-26 18:00:00 NR -17.5200 138.500 30 998 bom main 0 0 O_____O_______ jtwc_sh SH251998 -17.5000 138.500 30 -1 -17.6000 138.500 20 30 998 45 45 3 192
1998056S14139 1998 15 SP EA MAY 1998-02-26 21:00:00 NR -17.7000 138.450 main 0 0 P_____________ SH251998 -17.7000 138.450 30 -1 20 4 194
1998056S14139 1998 15 SP EA MAY 1998-02-27 00:00:00 NR -17.9000 138.400 main 0 0 O_____________ jtwc_sh SH251998 -17.9000 138.400 30 -1 4 191
1998056S14139 1998 15 SP EA MAY 1998-02-27 03:00:00 NR -18.1075 138.365 main 0 0 P_____________ SH251998 -18.1075 138.365 30 -1 4 193
1998056S14139 1998 15 SP EA MAY 1998-02-27 06:00:00 NR -18.3000 138.300 main 0 0 O_____________ jtwc_sh SH251998 -18.3000 138.300 30 -1 4 206
1998056S14139 1998 15 SP EA MAY 1998-02-27 09:00:00 NR -18.4800 138.180 main 0 0 P_____________ SH251998 -18.4800 138.180 27 -1 4 223
1998056S14139 1998 15 SP EA MAY 1998-02-27 12:00:00 NR -18.6000 138.000 main 0 0 O_____________ jtwc_sh SH251998 -18.6000 138.000 25 -1 4 245
1998056S14139 1998 15 SP EA MAY 1998-02-27 15:00:00 NR -18.6600 137.773 main 0 0 P_____________ SH251998 -18.6600 137.773 25 -1 5 270
1998056S14139 1998 15 SP EA MAY 1998-02-27 18:00:00 NR -18.6000 137.500 main 0 0 O_____________ jtwc_sh SH251998 -18.6000 137.500 25 -1 6 296
1998056S14139 1998 15 SP EA MAY 1998-02-27 21:00:00 NR -18.3950 137.207 main 0 0 P_____________ SH251998 -18.3950 137.207 25 -1 8 311
1998056S14139 1998 15 SP EA MAY 1998-02-28 00:00:00 NR -18.1000 136.900 main 0 0 O_____________ jtwc_sh SH251998 -18.1000 136.900 25 -1 8 315
1998056S14139 1998 15 SP EA MAY 1998-02-28 03:00:00 NR -17.8075 136.600 main 0 0 P_____________ SH251998 -17.8075 136.600 25 -1 8 316
1998056S14139 1998 15 SP EA MAY 1998-02-28 06:00:00 NR -17.5000 136.300 main 0 0 O_____________ jtwc_sh SH251998 -17.5000 136.300 25 -1 8 318
1998056S14139 1998 15 SP EA MAY 1998-02-28 09:00:00 NR -17.1774 136.015 main 0 0 P_____________ SH251998 -17.1774 136.015 25 -1 8 316
1998056S14139 1998 15 SP EA MAY 1998-02-28 12:00:00 NR -16.9000 135.700 main 0 0 O_____________ jtwc_sh SH251998 -16.9000 135.700 25 -1 8 304
1998056S14139 1998 15 SP EA MAY 1998-02-28 15:00:00 NR -16.7202 135.320 main 0 0 P_____________ SH251998 -16.7202 135.320 25 -1 8 291
1998056S14139 1998 15 SI WA MAY 1998-02-28 18:00:00 NR -16.6000 134.900 main 0 O_____________ jtwc_sh SH251998 -16.6000 134.900 25 -1 8 287

デジタル台風データ・検索

IBTrACS Databaseについて

本データベースは、米国NOAAが公開する1842年以降の世界の熱帯低気圧のベストトラックデータアーカイブInternational Best Track Archive for Climate Stewardship (IBTrACS)を、ウェブで閲覧しやすい形式に変換したものです。

最終更新日:2021-11-26